createdAt,value
2023-05-02T00:00:26.868Z,42.42
2023-05-02T00:01:28.666Z,42.47
2023-05-02T00:02:32.886Z,42.43
2023-05-02T00:03:35.101Z,42.41
2023-05-02T00:04:38.051Z,42.59
2023-05-02T00:05:40.646Z,42.59
2023-05-02T00:06:43.486Z,42.59
2023-05-02T00:07:45.573Z,42.49
2023-05-02T00:08:49.911Z,42.66
2023-05-02T00:09:51.618Z,42.47
2023-05-02T00:10:54.471Z,42.47
2023-05-02T00:11:56.159Z,42.59
2023-05-02T00:12:58.862Z,42.43
2023-05-02T00:14:00.581Z,42.52
2023-05-02T00:15:03.270Z,42.60
2023-05-02T00:16:05.767Z,42.87
2023-05-02T00:17:08.537Z,42.76
2023-05-02T00:18:11.966Z,42.89
2023-05-02T00:19:14.789Z,42.79
2023-05-02T00:20:16.476Z,43.04
2023-05-02T00:21:19.151Z,43.22
2023-05-02T00:22:20.838Z,42.97
2023-05-02T00:23:23.907Z,43.09
2023-05-02T00:24:26.823Z,43.16
2023-05-02T00:25:29.652Z,43.24
2023-05-02T00:26:31.333Z,43.13
2023-05-02T00:27:34.529Z,43.20
2023-05-02T00:28:36.592Z,43.35
2023-05-02T00:29:39.407Z,43.39
2023-05-02T00:30:44.342Z,43.32
2023-05-02T00:31:47.013Z,43.35
2023-05-02T00:32:48.768Z,43.58
2023-05-02T00:33:52.863Z,43.44
2023-05-02T00:34:54.596Z,43.53
2023-05-02T00:35:57.364Z,43.46
2023-05-02T00:36:59.305Z,43.51
2023-05-02T00:38:02.007Z,43.46
2023-05-02T00:39:04.302Z,43.54
2023-05-02T00:40:08.473Z,43.58
2023-05-02T00:41:10.803Z,43.58
2023-05-02T00:42:13.438Z,43.47
2023-05-02T00:43:15.697Z,43.55
2023-05-02T00:44:18.526Z,43.56
2023-05-02T00:45:20.332Z,43.67
2023-05-02T00:46:23.127Z,43.74
2023-05-02T00:47:25.037Z,43.71
2023-05-02T00:48:27.993Z,43.58
2023-05-02T00:49:31.182Z,43.74
2023-05-02T00:50:33.943Z,43.74
2023-05-02T00:51:35.677Z,43.69
2023-05-02T00:52:38.784Z,43.72
2023-05-02T00:53:40.976Z,43.67
2023-05-02T00:54:44.931Z,43.64
2023-05-02T00:55:46.997Z,43.66
2023-05-02T00:56:49.679Z,43.68
2023-05-02T00:57:51.504Z,43.64
2023-05-02T00:58:54.922Z,43.66
2023-05-02T00:59:57.407Z,43.46
2023-05-02T01:01:15.992Z,43.33
2023-05-02T01:02:28.895Z,43.49
2023-05-02T01:03:38.093Z,43.46
2023-05-02T01:04:51.047Z,43.36
2023-05-02T01:06:00.624Z,43.46
2023-05-02T01:07:13.286Z,43.36
2023-05-02T01:08:21.297Z,43.51
2023-05-02T01:09:34.067Z,43.46
2023-05-02T01:10:50.036Z,43.43
2023-05-02T01:11:57.054Z,43.66
2023-05-02T01:13:03.847Z,43.59
2023-05-02T01:14:06.182Z,43.71
2023-05-02T01:15:11.469Z,43.76
2023-05-02T01:16:14.654Z,43.80
2023-05-02T01:17:18.279Z,43.91
2023-05-02T01:18:22.896Z,43.76
2023-05-02T01:19:27.662Z,44.13
2023-05-02T01:20:31.379Z,44.15
2023-05-02T01:21:34.717Z,44.23
2023-05-02T01:22:38.549Z,44.28
2023-05-02T01:23:52.693Z,44.20
2023-05-02T01:25:00.690Z,44.38
2023-05-02T01:26:11.762Z,44.32
2023-05-02T01:27:19.064Z,44.58
2023-05-02T01:28:30.349Z,44.94
2023-05-02T01:29:33.586Z,44.78
2023-05-02T01:30:39.722Z,44.80
2023-05-02T01:31:43.466Z,44.81
2023-05-02T01:32:47.749Z,44.82
2023-05-02T01:33:50.321Z,45.02
2023-05-02T01:34:54.253Z,45.03
2023-05-02T01:35:56.350Z,44.80
2023-05-02T01:36:59.963Z,45.04
2023-05-02T01:38:03.295Z,44.80
2023-05-02T01:39:07.437Z,44.92
2023-05-02T01:40:10.484Z,45.22
2023-05-02T01:41:14.208Z,45.20
2023-05-02T01:42:16.843Z,45.17
2023-05-02T01:43:21.525Z,45.13
2023-05-02T01:44:24.429Z,45.42
2023-05-02T01:45:29.283Z,45.34
2023-05-02T01:46:33.330Z,45.31
2023-05-02T01:47:37.158Z,45.09
2023-05-02T01:48:39.279Z,45.11
2023-05-02T01:49:42.621Z,45.04
2023-05-02T01:50:45.564Z,45.19
2023-05-02T01:51:49.460Z,45.02
2023-05-02T01:52:52.768Z,45.19
2023-05-02T01:53:55.472Z,45.02
2023-05-02T01:54:58.254Z,45.16
2023-05-02T01:56:01.595Z,44.92
2023-05-02T01:57:06.298Z,45.00
2023-05-02T01:58:09.067Z,45.01
2023-05-02T01:59:11.789Z,45.15
2023-05-02T02:00:15.333Z,45.37
2023-05-02T02:01:18.646Z,45.33
2023-05-02T02:02:22.336Z,45.44
2023-05-02T02:03:24.728Z,45.47
2023-05-02T02:04:27.711Z,45.39
2023-05-02T02:05:29.826Z,45.55
2023-05-02T02:06:32.625Z,45.52
2023-05-02T02:07:34.403Z,45.51
2023-05-02T02:08:37.310Z,45.57
2023-05-02T02:09:39.259Z,45.84
2023-05-02T02:10:44.879Z,45.61
2023-05-02T02:11:49.573Z,45.76
2023-05-02T02:12:53.840Z,45.50
2023-05-02T02:14:00.509Z,45.74
2023-05-02T02:15:07.944Z,45.70
2023-05-02T02:16:11.692Z,45.67
2023-05-02T02:17:19.488Z,45.60
2023-05-02T02:18:25.271Z,45.58
2023-05-02T02:19:28.621Z,45.65
2023-05-02T02:20:31.961Z,45.71
2023-05-02T02:21:35.636Z,45.51
2023-05-02T02:22:39.154Z,45.63
2023-05-02T02:23:44.029Z,45.83
2023-05-02T02:24:46.909Z,45.67
2023-05-02T02:25:50.335Z,45.47
2023-05-02T02:26:52.197Z,45.79
2023-05-02T02:27:55.002Z,45.90
2023-05-02T02:28:56.718Z,45.75
2023-05-02T02:29:59.692Z,45.80
2023-05-02T02:31:02.632Z,45.79
2023-05-02T02:32:05.539Z,45.56
2023-05-02T02:33:08.930Z,45.70
2023-05-02T02:34:11.710Z,45.80
2023-05-02T02:35:13.528Z,45.65
2023-05-02T02:36:21.474Z,45.77
2023-05-02T02:37:26.662Z,45.95
2023-05-02T02:38:33.598Z,45.71
2023-05-02T02:39:41.967Z,45.86
2023-05-02T02:40:47.267Z,45.58
2023-05-02T02:41:54.152Z,45.73
2023-05-02T02:43:01.570Z,45.93
2023-05-02T02:44:06.878Z,45.73
2023-05-02T02:45:17.897Z,45.91
2023-05-02T02:46:31.696Z,46.01
2023-05-02T02:47:37.376Z,45.74
2023-05-02T02:48:46.551Z,46.05
2023-05-02T02:49:50.884Z,46.07
2023-05-02T02:51:01.217Z,46.23
2023-05-02T02:52:06.470Z,46.10
2023-05-02T02:53:10.889Z,46.29
2023-05-02T02:54:25.933Z,46.54
2023-05-02T02:55:38.501Z,46.24
2023-05-02T02:56:42.259Z,46.20
2023-05-02T02:57:49.555Z,46.28
2023-05-02T02:58:56.866Z,46.20
2023-05-02T03:00:02.934Z,46.40
2023-05-02T03:01:06.784Z,46.71
2023-05-02T03:02:11.217Z,46.63
2023-05-02T03:03:14.538Z,46.75
2023-05-02T03:04:20.244Z,46.62
2023-05-02T03:05:22.781Z,46.70
2023-05-02T03:06:26.117Z,46.74
2023-05-02T03:07:28.247Z,47.00
2023-05-02T03:08:40.162Z,46.65
2023-05-02T03:09:42.410Z,46.73
2023-05-02T03:10:45.085Z,46.71
2023-05-02T03:11:46.828Z,46.82
2023-05-02T03:12:49.606Z,46.95
2023-05-02T03:13:52.764Z,47.20
2023-05-02T03:15:00.483Z,47.30
2023-05-02T03:16:34.662Z,46.75
2023-05-02T03:17:37.461Z,47.05
2023-05-02T03:18:40.449Z,47.54
2023-05-02T03:19:44.476Z,47.42
2023-05-02T03:20:46.218Z,47.87
2023-05-02T03:21:49.009Z,47.49
2023-05-02T03:22:50.734Z,47.55
2023-05-02T03:23:53.650Z,47.88
2023-05-02T03:24:56.322Z,47.79
2023-05-02T03:25:58.123Z,47.63
2023-05-02T03:27:00.915Z,48.00
2023-05-02T03:28:02.767Z,47.84
2023-05-02T03:29:05.467Z,48.12
2023-05-02T03:30:08.511Z,47.85
2023-05-02T03:31:11.223Z,47.89
2023-05-02T03:32:14.043Z,48.24
2023-05-02T03:33:15.859Z,48.09
2023-05-02T03:34:19.738Z,48.42
2023-05-02T03:35:23.054Z,48.18
2023-05-02T03:36:25.812Z,48.11
2023-05-02T03:37:27.486Z,47.84
2023-05-02T03:38:30.761Z,48.26
2023-05-02T03:39:32.490Z,48.27
2023-05-02T03:40:35.223Z,48.07
2023-05-02T03:41:37.048Z,48.03
2023-05-02T03:42:41.383Z,48.28
2023-05-02T03:43:43.053Z,48.37
2023-05-02T03:44:45.801Z,48.28
2023-05-02T03:45:48.743Z,48.29
2023-05-02T03:46:51.774Z,48.26
2023-05-02T03:47:53.617Z,48.84
2023-05-02T03:48:56.426Z,48.54
2023-05-02T03:49:59.319Z,48.46
2023-05-02T03:51:04.487Z,48.92
2023-05-02T03:52:06.249Z,48.53
2023-05-02T03:53:10.095Z,48.88
2023-05-02T03:54:11.846Z,48.85
2023-05-02T03:55:15.145Z,49.22
2023-05-02T03:56:20.172Z,49.36
2023-05-02T03:57:23.059Z,49.37
2023-05-02T03:58:25.583Z,49.61
2023-05-02T03:59:28.745Z,49.65
2023-05-02T04:00:31.607Z,49.76
2023-05-02T04:01:34.382Z,50.37
2023-05-02T04:02:36.368Z,50.71
2023-05-02T04:03:39.269Z,50.15
2023-05-02T04:04:41.170Z,50.17
2023-05-02T04:05:44.352Z,50.36
2023-05-02T04:06:47.521Z,50.66
2023-05-02T04:07:50.257Z,50.54
2023-05-02T04:08:51.904Z,50.51
2023-05-02T04:09:54.775Z,50.19
2023-05-02T04:10:57.561Z,49.95
2023-05-02T04:11:59.365Z,50.22
2023-05-02T04:13:03.082Z,50.08
2023-05-02T04:14:04.797Z,49.91
2023-05-02T04:15:08.564Z,50.07
2023-05-02T04:16:10.330Z,50.07
2023-05-02T04:17:13.632Z,50.27
2023-05-02T04:18:15.544Z,50.21
2023-05-02T04:19:19.120Z,49.87
2023-05-02T04:20:20.862Z,50.24
2023-05-02T04:21:23.545Z,50.31
2023-05-02T04:22:29.521Z,50.04
2023-05-02T04:23:32.240Z,50.02
2023-05-02T04:24:33.999Z,50.07
2023-05-02T04:25:36.707Z,50.15
2023-05-02T04:26:38.432Z,50.05
2023-05-02T04:27:41.095Z,50.07
2023-05-02T04:28:42.824Z,50.15
2023-05-02T04:29:45.592Z,50.02
2023-05-02T04:30:47.372Z,50.14
2023-05-02T04:31:50.921Z,50.17
2023-05-02T04:32:53.547Z,50.19
2023-05-02T04:33:56.301Z,50.38
2023-05-02T04:34:58.028Z,50.05
2023-05-02T04:36:01.185Z,50.28
2023-05-02T04:37:03.132Z,50.42
2023-05-02T04:38:07.249Z,50.42
2023-05-02T04:39:10.237Z,50.29
2023-05-02T04:40:13.024Z,50.23
2023-05-02T04:41:16.198Z,50.71
2023-05-02T04:42:17.978Z,50.79
2023-05-02T04:43:22.463Z,50.82
2023-05-02T04:44:26.190Z,50.97
2023-05-02T04:45:28.939Z,50.61
2023-05-02T04:46:30.836Z,51.01
2023-05-02T04:47:33.583Z,50.83
2023-05-02T04:48:35.355Z,51.21
2023-05-02T04:49:38.055Z,51.48
2023-05-02T04:50:41.059Z,51.75
2023-05-02T04:51:43.900Z,51.75
2023-05-02T04:52:45.658Z,51.69
2023-05-02T04:53:50.353Z,51.98
2023-05-02T04:54:52.396Z,51.86
2023-05-02T04:55:55.062Z,52.07
2023-05-02T04:56:57.711Z,52.21
2023-05-02T04:57:59.398Z,51.88
2023-05-02T04:59:02.110Z,51.95
2023-05-02T05:00:04.471Z,52.13
2023-05-02T05:01:07.233Z,52.23
2023-05-02T05:02:12.582Z,52.20
2023-05-02T05:03:15.539Z,52.66
2023-05-02T05:04:17.561Z,52.46
2023-05-02T05:05:20.389Z,52.56
2023-05-02T05:06:22.710Z,52.20
2023-05-02T05:07:25.673Z,52.20
2023-05-02T05:08:27.487Z,52.11
2023-05-02T05:09:31.550Z,52.65
2023-05-02T05:10:33.271Z,52.45
2023-05-02T05:11:36.055Z,52.26
2023-05-02T05:12:37.778Z,52.48
2023-05-02T05:13:40.519Z,52.32
2023-05-02T05:14:42.325Z,52.61
2023-05-02T05:15:45.358Z,52.11
2023-05-02T05:16:47.282Z,52.50
2023-05-02T05:17:50.084Z,52.25
2023-05-02T05:18:53.846Z,52.55
2023-05-02T05:19:56.581Z,52.19
2023-05-02T05:20:58.273Z,52.14
2023-05-02T05:22:01.048Z,52.34
2023-05-02T05:23:02.761Z,52.12
2023-05-02T05:24:06.268Z,52.26
2023-05-02T05:25:10.547Z,52.58
2023-05-02T05:26:15.258Z,52.29
2023-05-02T05:27:17.066Z,52.55
2023-05-02T05:28:19.851Z,52.65
2023-05-02T05:29:21.576Z,52.42
2023-05-02T05:30:25.494Z,52.58
2023-05-02T05:31:27.296Z,52.66
2023-05-02T05:32:30.077Z,52.45
2023-05-02T05:33:32.059Z,52.63
2023-05-02T05:34:34.735Z,52.48
2023-05-02T05:35:36.568Z,52.58
2023-05-02T05:36:41.051Z,52.51
2023-05-02T05:37:44.583Z,52.47
2023-05-02T05:38:46.373Z,52.79
2023-05-02T05:39:49.357Z,52.46
2023-05-02T05:40:52.464Z,52.81
2023-05-02T05:41:55.179Z,52.53
2023-05-02T05:42:56.928Z,52.83
2023-05-02T05:43:59.623Z,53.11
2023-05-02T05:45:01.356Z,52.65
2023-05-02T05:46:04.252Z,52.50
2023-05-02T05:47:06.001Z,52.74
2023-05-02T05:48:08.779Z,52.89
2023-05-02T05:49:10.610Z,52.83
2023-05-02T05:50:13.320Z,52.80
2023-05-02T05:51:15.081Z,52.78
2023-05-02T05:52:17.753Z,53.03
2023-05-02T05:53:19.645Z,53.17
2023-05-02T05:54:22.355Z,53.18
2023-05-02T05:55:24.135Z,53.28
2023-05-02T05:56:28.201Z,53.30
2023-05-02T05:57:30.148Z,53.16
2023-05-02T05:58:32.871Z,53.26
2023-05-02T05:59:37.583Z,53.09
2023-05-02T06:00:40.784Z,52.80
2023-05-02T06:01:42.821Z,52.83
2023-05-02T06:02:45.576Z,52.63
2023-05-02T06:03:47.624Z,52.73
2023-05-02T06:04:50.628Z,52.55
2023-05-02T06:05:52.533Z,52.53
2023-05-02T06:06:55.369Z,52.66
2023-05-02T06:07:57.390Z,52.60
2023-05-02T06:09:00.100Z,52.44
2023-05-02T06:10:02.102Z,52.47
2023-05-02T06:11:05.399Z,52.19
2023-05-02T06:12:08.433Z,52.53
2023-05-02T06:13:11.247Z,52.16
2023-05-02T06:14:12.938Z,52.33
2023-05-02T06:15:15.960Z,52.10
2023-05-02T06:16:18.226Z,52.09
2023-05-02T06:17:20.892Z,51.95
2023-05-02T06:18:22.666Z,51.73
2023-05-02T06:19:25.512Z,51.58
2023-05-02T06:20:28.381Z,51.64
2023-05-02T06:21:31.392Z,51.64
2023-05-02T06:22:33.051Z,51.52
2023-05-02T06:23:35.782Z,51.26
2023-05-02T06:24:38.471Z,51.38
2023-05-02T06:25:40.134Z,51.04
2023-05-02T06:26:42.845Z,50.72
2023-05-02T06:27:46.918Z,50.84
2023-05-02T06:28:48.607Z,50.96
2023-05-02T06:29:52.395Z,50.94
2023-05-02T06:30:57.882Z,50.95
2023-05-02T06:32:00.729Z,50.94
2023-05-02T06:33:04.552Z,50.73
2023-05-02T06:34:07.853Z,50.50
2023-05-02T06:35:10.206Z,50.52
2023-05-02T06:36:12.897Z,50.38
2023-05-02T06:37:14.690Z,50.22
2023-05-02T06:38:18.511Z,50.24
2023-05-02T06:39:20.199Z,50.14
2023-05-02T06:40:22.899Z,50.02
2023-05-02T06:41:25.530Z,50.10
2023-05-02T06:42:27.215Z,50.13
2023-05-02T06:43:31.281Z,49.84
2023-05-02T06:44:33.013Z,49.80
2023-05-02T06:45:35.701Z,49.83
2023-05-02T06:46:37.435Z,49.79
2023-05-02T06:47:40.227Z,49.46
2023-05-02T06:48:43.025Z,49.30
2023-05-02T06:49:44.762Z,49.60
2023-05-02T06:50:47.434Z,49.49
2023-05-02T06:51:50.255Z,49.47
2023-05-02T06:52:52.014Z,49.30
2023-05-02T06:53:54.688Z,49.40
2023-05-02T06:54:56.374Z,49.57
2023-05-02T06:55:59.144Z,49.39
2023-05-02T06:57:02.180Z,49.43
2023-05-02T06:58:03.909Z,49.27
2023-05-02T06:59:08.028Z,49.31
2023-05-02T07:00:11.004Z,49.11
2023-05-02T07:01:13.726Z,48.78
2023-05-02T07:02:15.431Z,48.79
2023-05-02T07:03:18.155Z,48.71
2023-05-02T07:04:20.029Z,48.25
2023-05-02T07:05:22.803Z,48.21
2023-05-02T07:06:24.745Z,48.22
2023-05-02T07:07:27.507Z,48.21
2023-05-02T07:08:30.195Z,48.24
2023-05-02T07:09:31.956Z,48.31
2023-05-02T07:10:34.883Z,48.03
2023-05-02T07:11:36.653Z,48.09
2023-05-02T07:12:40.070Z,48.11
2023-05-02T07:13:41.786Z,48.02
2023-05-02T07:14:46.891Z,48.10
2023-05-02T07:15:48.746Z,48.24
2023-05-02T07:16:51.535Z,48.03
2023-05-02T07:17:53.767Z,47.83
2023-05-02T07:18:56.540Z,47.93
2023-05-02T07:19:59.617Z,47.89
2023-05-02T07:21:02.467Z,47.91
2023-05-02T07:22:05.383Z,47.83
2023-05-02T07:23:07.132Z,47.79
2023-05-02T07:24:09.814Z,47.83
2023-05-02T07:25:11.830Z,47.64
2023-05-02T07:26:14.512Z,47.54
2023-05-02T07:27:16.172Z,47.17
2023-05-02T07:28:18.987Z,47.24
2023-05-02T07:29:20.669Z,47.15
2023-05-02T07:30:24.925Z,47.04
2023-05-02T07:31:26.870Z,46.95
2023-05-02T07:32:29.618Z,46.93
2023-05-02T07:33:32.431Z,46.82
2023-05-02T07:34:34.148Z,46.62
2023-05-02T07:35:36.838Z,46.34
2023-05-02T07:36:39.392Z,46.19
2023-05-02T07:37:42.126Z,45.96
2023-05-02T07:38:43.843Z,45.77
2023-05-02T07:39:46.572Z,46.03
2023-05-02T07:40:49.244Z,45.86
2023-05-02T07:41:52.399Z,45.88
2023-05-02T07:42:55.128Z,45.84
2023-05-02T07:43:58.309Z,45.31
2023-05-02T07:45:00.308Z,45.42
2023-05-02T07:46:09.305Z,45.25
2023-05-02T07:47:12.046Z,45.04
2023-05-02T07:48:14.767Z,44.81
2023-05-02T07:49:16.515Z,45.04
2023-05-02T07:50:19.364Z,44.88
2023-05-02T07:51:21.616Z,44.72
2023-05-02T07:52:24.318Z,44.48
2023-05-02T07:53:26.302Z,44.29
2023-05-02T07:54:28.982Z,43.95
2023-05-02T07:55:33.210Z,43.38
2023-05-02T07:56:36.196Z,43.00
2023-05-02T07:57:38.937Z,43.10
2023-05-02T07:58:41.650Z,42.98
2023-05-02T07:59:44.296Z,43.05
2023-05-02T08:00:46.745Z,43.13
2023-05-02T08:01:50.815Z,42.99
2023-05-02T08:02:53.722Z,42.99
2023-05-02T08:03:56.770Z,42.88
2023-05-02T08:04:59.713Z,42.99
2023-05-02T08:06:04.005Z,43.14
2023-05-02T08:07:05.767Z,42.84
2023-05-02T08:08:08.588Z,42.61
2023-05-02T08:09:11.225Z,42.61
2023-05-02T08:10:13.923Z,42.32
2023-05-02T08:11:16.707Z,42.28
2023-05-02T08:12:19.381Z,41.79
2023-05-02T08:13:21.221Z,41.61
2023-05-02T08:14:23.881Z,41.71
2023-05-02T08:15:25.797Z,41.48
2023-05-02T08:16:28.594Z,41.73
2023-05-02T08:17:31.951Z,41.73
2023-05-02T08:18:34.666Z,41.83
2023-05-02T08:19:36.356Z,41.94
2023-05-02T08:20:39.048Z,41.38
2023-05-02T08:21:42.429Z,41.19
2023-05-02T08:22:44.143Z,41.37
2023-05-02T08:23:47.277Z,41.23
2023-05-02T08:24:49.982Z,41.52
2023-05-02T08:25:52.751Z,41.54
2023-05-02T08:26:54.443Z,42.10
2023-05-02T08:27:57.237Z,42.05
2023-05-02T08:29:01.057Z,41.99
2023-05-02T08:30:03.295Z,41.84
2023-05-02T08:31:06.508Z,42.00
2023-05-02T08:32:09.401Z,41.98
2023-05-02T08:33:13.540Z,42.19
2023-05-02T08:34:15.348Z,42.59
2023-05-02T08:35:18.239Z,42.65
2023-05-02T08:36:19.939Z,42.63
2023-05-02T08:37:22.751Z,42.74
2023-05-02T08:38:25.498Z,42.80
2023-05-02T08:39:28.122Z,42.54
2023-05-02T08:40:41.425Z,42.54
2023-05-02T08:41:45.591Z,42.25
2023-05-02T08:42:48.311Z,42.46
2023-05-02T08:43:50.030Z,42.44
2023-05-02T08:44:52.810Z,42.64
2023-05-02T08:45:55.673Z,42.18
2023-05-02T08:46:57.689Z,42.40
2023-05-02T08:48:01.233Z,42.26
2023-05-02T08:49:06.766Z,42.14
2023-05-02T08:50:09.403Z,42.74
2023-05-02T08:51:15.303Z,42.77
2023-05-02T08:52:17.930Z,43.28
2023-05-02T08:53:21.147Z,43.44
2023-05-02T08:54:25.844Z,42.87
2023-05-02T08:55:27.713Z,43.12
2023-05-02T08:56:30.785Z,43.06
2023-05-02T08:57:33.543Z,43.33
2023-05-02T08:58:36.666Z,43.46
2023-05-02T08:59:39.413Z,43.42
2023-05-02T09:00:42.174Z,43.08
2023-05-02T09:01:47.586Z,43.15
2023-05-02T09:02:57.227Z,43.09
2023-05-02T09:04:00.002Z,43.01
2023-05-02T09:05:07.573Z,43.11
2023-05-02T09:06:12.842Z,43.02
2023-05-02T09:07:15.757Z,42.47
2023-05-02T09:08:22.368Z,42.66
2023-05-02T09:09:25.500Z,42.86
2023-05-02T09:10:29.804Z,42.81
2023-05-02T09:11:32.461Z,42.26
2023-05-02T09:12:34.144Z,42.30
2023-05-02T09:13:38.419Z,42.21
2023-05-02T09:14:41.106Z,42.20
2023-05-02T09:15:42.904Z,42.56
2023-05-02T09:16:45.774Z,42.45
2023-05-02T09:17:48.322Z,42.36
2023-05-02T09:18:52.819Z,42.06
2023-05-02T09:20:01.322Z,42.49
2023-05-02T09:21:08.916Z,42.66
2023-05-02T09:22:11.876Z,42.36
2023-05-02T09:23:14.203Z,42.45
2023-05-02T09:24:18.069Z,42.14
2023-05-02T09:25:19.970Z,42.47
2023-05-02T09:26:23.715Z,42.13
2023-05-02T09:27:26.205Z,42.16
2023-05-02T09:28:43.175Z,42.12
2023-05-02T09:29:47.049Z,41.95
2023-05-02T09:30:49.901Z,42.14
2023-05-02T09:31:56.180Z,41.93
2023-05-02T09:32:59.389Z,41.53
2023-05-02T09:34:10.108Z,41.64
2023-05-02T09:35:13.553Z,41.66
2023-05-02T09:36:20.091Z,41.52
2023-05-02T09:37:35.190Z,41.15
2023-05-02T09:38:38.871Z,41.27
2023-05-02T09:39:41.671Z,41.36
2023-05-02T09:40:54.596Z,41.13
2023-05-02T09:41:58.108Z,41.43
2023-05-02T09:42:59.850Z,40.84
2023-05-02T09:44:02.557Z,40.44
2023-05-02T09:45:05.064Z,40.36
2023-05-02T09:46:09.229Z,40.97
2023-05-02T09:47:11.082Z,41.16
2023-05-02T09:48:15.128Z,40.95
2023-05-02T09:49:20.069Z,40.76
2023-05-02T09:50:35.029Z,40.15
2023-05-02T09:51:39.461Z,40.77
2023-05-02T09:52:42.224Z,40.44
2023-05-02T09:53:45.497Z,40.29
2023-05-02T09:54:50.562Z,40.37
2023-05-02T09:56:01.210Z,40.03
2023-05-02T09:57:04.636Z,39.44
2023-05-02T09:58:06.623Z,39.32
2023-05-02T09:59:16.338Z,38.81
2023-05-02T10:00:20.053Z,38.80
2023-05-02T10:01:22.716Z,38.90
2023-05-02T10:02:24.904Z,38.82
2023-05-02T10:03:31.870Z,38.90
2023-05-02T10:04:38.840Z,38.75
2023-05-02T10:05:40.986Z,38.75
2023-05-02T10:06:45.421Z,38.76
2023-05-02T10:07:47.464Z,38.64
2023-05-02T10:08:50.303Z,38.38
2023-05-02T10:09:53.086Z,38.19
2023-05-02T10:10:57.072Z,37.95
2023-05-02T10:12:04.924Z,37.58
2023-05-02T10:13:08.933Z,37.69
2023-05-02T10:14:12.916Z,38.04
2023-05-02T10:15:16.318Z,37.68
2023-05-02T10:16:25.014Z,36.97
2023-05-02T10:17:29.813Z,36.61
2023-05-02T10:18:40.017Z,36.76
2023-05-02T10:19:46.592Z,36.87
2023-05-02T10:20:58.018Z,37.06
2023-05-02T10:22:03.005Z,37.10
2023-05-02T10:23:05.074Z,37.18
2023-05-02T10:24:07.870Z,37.16
2023-05-02T10:25:09.834Z,36.93
2023-05-02T10:26:16.070Z,37.05
2023-05-02T10:27:17.876Z,36.58
2023-05-02T10:28:20.900Z,36.02
2023-05-02T10:29:23.676Z,36.46
2023-05-02T10:30:25.904Z,36.53
2023-05-02T10:31:29.420Z,36.51
2023-05-02T10:32:33.828Z,36.61
2023-05-02T10:33:36.780Z,36.28
2023-05-02T10:34:39.345Z,36.58
2023-05-02T10:35:45.669Z,36.00
2023-05-02T10:36:49.013Z,35.69
2023-05-02T10:37:52.596Z,35.42
2023-05-02T10:38:55.998Z,35.12
2023-05-02T10:39:59.029Z,34.15
2023-05-02T10:41:03.128Z,34.07
2023-05-02T10:42:06.155Z,34.04
2023-05-02T10:43:09.086Z,34.61
2023-05-02T10:44:11.031Z,34.70
2023-05-02T10:45:14.648Z,34.91
2023-05-02T10:46:31.650Z,35.15
2023-05-02T10:47:34.421Z,35.17
2023-05-02T10:48:38.419Z,35.27
2023-05-02T10:49:51.037Z,35.25
2023-05-02T10:50:53.693Z,34.99
2023-05-02T10:51:56.433Z,35.41
2023-05-02T10:52:59.809Z,35.21
2023-05-02T10:54:24.787Z,35.25
2023-05-02T10:55:26.490Z,35.13
2023-05-02T10:56:29.353Z,35.30
2023-05-02T10:57:31.082Z,35.41
2023-05-02T10:58:33.755Z,35.46
2023-05-02T10:59:38.183Z,35.40
2023-05-02T11:00:40.037Z,35.33
2023-05-02T11:01:43.007Z,35.48
2023-05-02T11:02:49.141Z,35.21
2023-05-02T11:03:56.414Z,35.36
2023-05-02T11:05:04.417Z,35.21
2023-05-02T11:06:06.961Z,35.11
2023-05-02T11:07:19.897Z,35.15
2023-05-02T11:08:32.991Z,35.21
2023-05-02T11:09:34.818Z,34.96
2023-05-02T11:10:37.529Z,34.85
2023-05-02T11:11:41.099Z,34.61
2023-05-02T11:12:48.903Z,34.87
2023-05-02T11:13:50.815Z,34.26
2023-05-02T11:14:53.524Z,33.90
2023-05-02T11:15:56.938Z,33.83
2023-05-02T11:17:10.174Z,33.38
2023-05-02T11:18:13.501Z,32.60
2023-05-02T11:19:16.241Z,32.83
2023-05-02T11:20:21.796Z,32.70
2023-05-02T11:21:29.626Z,32.02
2023-05-02T11:22:31.695Z,32.31
2023-05-02T11:23:36.984Z,31.90
2023-05-02T11:24:39.726Z,31.72
2023-05-02T11:25:43.506Z,31.71
2023-05-02T11:26:45.225Z,31.35
2023-05-02T11:27:49.338Z,30.94
2023-05-02T11:28:52.740Z,31.21
2023-05-02T11:29:54.975Z,31.07
2023-05-02T11:30:58.044Z,31.29
2023-05-02T11:31:59.849Z,30.78
2023-05-02T11:33:29.624Z,30.72
2023-05-02T11:34:43.533Z,30.64
2023-05-02T11:35:46.821Z,30.27
2023-05-02T11:36:49.536Z,30.22
2023-05-02T11:37:53.711Z,29.56
2023-05-02T11:38:57.736Z,29.53
2023-05-02T11:40:11.699Z,29.59
2023-05-02T11:41:14.486Z,29.25
2023-05-02T11:42:29.368Z,29.74
2023-05-02T11:43:32.740Z,30.06
2023-05-02T11:44:35.785Z,30.25
2023-05-02T11:45:39.178Z,30.20
2023-05-02T11:46:42.278Z,30.37
2023-05-02T11:47:46.200Z,30.47
2023-05-02T11:48:49.915Z,30.45
2023-05-02T11:49:51.871Z,30.89
2023-05-02T11:50:56.404Z,30.53
2023-05-02T11:52:00.138Z,30.32
2023-05-02T11:53:01.931Z,30.03
2023-05-02T11:54:07.694Z,29.77
2023-05-02T11:55:15.868Z,29.04
2023-05-02T11:56:24.690Z,28.92
2023-05-02T11:57:27.917Z,28.74
2023-05-02T11:58:32.735Z,28.40
2023-05-02T11:59:50.828Z,27.82
2023-05-02T12:00:54.498Z,27.65
2023-05-02T12:01:58.146Z,27.47
2023-05-02T12:03:00.062Z,27.71
2023-05-02T12:04:04.047Z,27.28
2023-05-02T12:05:06.694Z,27.42
2023-05-02T12:06:12.282Z,27.58
2023-05-02T12:07:14.472Z,27.54
2023-05-02T12:08:22.633Z,27.63
2023-05-02T12:09:26.942Z,27.62
2023-05-02T12:10:36.497Z,27.71
2023-05-02T12:11:39.188Z,27.72
2023-05-02T12:12:43.962Z,27.70
2023-05-02T12:13:48.796Z,27.37
2023-05-02T12:14:50.758Z,27.23
2023-05-02T12:15:55.079Z,26.81
2023-05-02T12:16:59.509Z,26.40
2023-05-02T12:18:01.502Z,26.02
2023-05-02T12:19:04.799Z,25.44
2023-05-02T12:20:07.969Z,25.51
2023-05-02T12:21:11.036Z,25.60
2023-05-02T12:22:14.504Z,26.03
2023-05-02T12:23:16.454Z,26.10
2023-05-02T12:24:19.287Z,26.30
2023-05-02T12:25:22.384Z,26.07
2023-05-02T12:26:29.549Z,26.29
2023-05-02T12:27:33.293Z,25.82
2023-05-02T12:28:50.433Z,26.07
2023-05-02T12:29:53.166Z,26.42
2023-05-02T12:30:56.016Z,26.38
2023-05-02T12:31:59.923Z,25.64
2023-05-02T12:33:03.681Z,25.04
2023-05-02T12:34:06.491Z,25.39
2023-05-02T12:35:21.580Z,26.03
2023-05-02T12:36:24.349Z,26.63
2023-05-02T12:37:28.357Z,26.92
2023-05-02T12:38:31.173Z,26.92
2023-05-02T12:39:36.651Z,27.20
2023-05-02T12:40:47.003Z,27.53
2023-05-02T12:41:49.653Z,27.13
2023-05-02T12:43:01.252Z,26.92
2023-05-02T12:44:04.308Z,27.25
2023-05-02T12:45:16.936Z,27.75
2023-05-02T12:46:20.167Z,27.92
2023-05-02T12:47:22.715Z,27.75
2023-05-02T12:48:26.833Z,27.91
2023-05-02T12:49:29.483Z,27.99
2023-05-02T12:50:38.106Z,27.67
2023-05-02T12:51:41.760Z,27.56
2023-05-02T12:52:47.519Z,27.64
2023-05-02T12:53:50.403Z,27.24
2023-05-02T12:54:53.301Z,26.71
2023-05-02T12:56:03.782Z,26.83
2023-05-02T12:57:06.577Z,26.94
2023-05-02T12:58:09.223Z,27.09
2023-05-02T12:59:13.177Z,27.21
2023-05-02T13:00:18.162Z,27.24
2023-05-02T13:01:20.877Z,27.27
2023-05-02T13:02:23.871Z,27.75
2023-05-02T13:03:28.240Z,28.13
2023-05-02T13:04:37.591Z,27.94
2023-05-02T13:05:40.355Z,28.48
2023-05-02T13:06:42.600Z,28.54
2023-05-02T13:07:46.080Z,28.67
2023-05-02T13:08:48.745Z,28.96
2023-05-02T13:09:50.430Z,29.52
2023-05-02T13:10:53.207Z,29.22
2023-05-02T13:11:57.092Z,29.11
2023-05-02T13:12:59.763Z,28.90
2023-05-02T13:14:04.166Z,28.31
2023-05-02T13:15:08.444Z,28.33
2023-05-02T13:16:11.451Z,28.17
2023-05-02T13:17:13.383Z,28.16
2023-05-02T13:18:16.274Z,28.27
2023-05-02T13:19:19.011Z,28.29
2023-05-02T13:20:22.024Z,28.11
2023-05-02T13:21:24.802Z,28.35
2023-05-02T13:22:26.856Z,28.86
2023-05-02T13:23:29.544Z,28.78
2023-05-02T13:24:31.244Z,28.37
2023-05-02T13:25:33.931Z,28.60
2023-05-02T13:26:35.649Z,28.46
2023-05-02T13:27:41.032Z,28.35
2023-05-02T13:28:43.723Z,28.35
2023-05-02T13:29:46.066Z,28.52
2023-05-02T13:30:48.985Z,28.45
2023-05-02T13:31:50.764Z,28.26
2023-05-02T13:32:53.794Z,27.94
2023-05-02T13:33:55.785Z,28.01
2023-05-02T13:34:58.548Z,28.05
2023-05-02T13:36:00.492Z,28.11
2023-05-02T13:37:03.152Z,28.52
2023-05-02T13:38:04.840Z,28.58
2023-05-02T13:39:07.672Z,28.47
2023-05-02T13:40:09.953Z,28.81
2023-05-02T13:41:12.705Z,28.64
2023-05-02T13:42:14.434Z,28.54